Weather at Port Bouet Airport

Public forecast

Using degrees Celsius for public forecast. Weather courtesy of forecast.io.

Current aviation weather report (METAR) for Port Bouet Airport

Retrieved 2020/12/04 04:30 UTC (15 minutes ago):

DIAP 040430Z 21007KT 9999 FEW011 27/25 Q1011 NOSIG

Aviation forecast (TAF) for Port Bouet Airport

Retrieved 2020-12-04 00:59 UTC (4 hours ago):

TAF DIAP 032300Z 0400/0506 VRB02KT 8000 FEW011 PROB30 TEMPO 0403/0409 4000 DZ PROB30 TEMPO 0416/0419 SCT015 FEW020CB